Time;durP1;ratioP1;P1;durP2;ratioP2;P2;SDS_P1;SDS_P2;PMS_P1;PMS_P2;Temp;Humidity;BMP_temperature;BMP_pressure;BME280_temperature;BME280_humidity;BME280_pressure;Samples;Min_cycle;Max_cycle;Signal;HPM_P1;HPM_P2
2023/09/28 00:01:35;;;;;;;;;;;;;;;17.03;46.82;100949.88;4957849;29;1023;-62
2023/09/28 00:04:01;;;;;;;;;;;;;;;17.07;45.97;100945.50;4953975;29;1196;-63
2023/09/28 00:06:27;;;;;;;;;;;;;;;17.01;45.54;100940.25;4948964;29;1033;-62
2023/09/28 00:08:52;;;;;;;;;;;;;;;16.91;45.24;100941.91;4957188;28;2410;-62
2023/09/28 00:11:18;;;;;;;;;;;;;;;16.91;45.41;100941.06;4947868;29;1058;-62
2023/09/28 00:13:43;;;;;;;;;;;;;;;17.33;46.91;100945.50;4955253;29;1184;-64
2023/09/28 00:16:09;;;;;;;;;;;;;;;17.12;46.78;100933.69;4951289;29;1894;-62
2023/09/28 00:18:34;;;;;;;;;;;;;;;16.97;46.23;100934.50;4955244;29;1112;-62
2023/09/28 00:21:01;;;;;;;;;;;;;;;16.96;45.77;100937.50;4957554;29;1018;-63
2023/09/28 00:23:26;;;;;;;;;;;;;;;16.92;45.54;100931.75;4953692;29;1084;-63
2023/09/28 00:25:52;;;;;;;;;;;;;;;16.87;45.37;100940.78;4948705;29;1090;-64
2023/09/28 00:28:17;;;;;;;;;;;;;;;16.85;45.09;100940.19;4954317;29;958;-61
2023/09/28 00:30:44;;;;;;;;;;;;;;;16.81;45.02;100938.28;4957382;29;1017;-62
2023/09/28 00:33:09;;;;;;;;;;;;;;;16.95;44.88;100949.59;4956572;29;1156;-61
2023/09/28 00:35:35;;;;;;;;;;;;;;;17.68;46.56;100943.84;4946634;29;1899;-61
2023/09/28 00:38:00;;;;;;;;;;;;;;;17.17;46.81;100938.38;4952882;29;2508;-61
2023/09/28 00:40:31;;;;;;;;;;;;;;;17.16;45.93;100942.22;4950532;29;1037;-61
2023/09/28 00:42:57;;;;;;;;;;;;;;;16.97;45.82;100939.16;4953083;29;1010;-61
2023/09/28 00:45:23;;;;;;;;;;;;;;;16.95;45.54;100936.69;4956832;29;1076;-61
2023/09/28 00:47:49;;;;;;;;;;;;;;;17.73;46.32;100930.09;4943536;29;994;-61
2023/09/28 00:50:15;;;;;;;;;;;;;;;17.26;46.89;100920.22;4957475;29;1072;-61
2023/09/28 00:52:46;;;;;;;;;;;;;;;17.09;46.17;100932.28;4948447;28;1116;-61
2023/09/28 00:55:11;;;;;;;;;;;;;;;17.04;45.91;100929.56;4948459;29;1898;-62
2023/09/28 00:57:38;;;;;;;;;;;;;;;16.96;45.33;100927.34;4953300;29;1078;-60
2023/09/28 01:00:26;;;;;;;;;;;;;;;17.00;45.58;100925.72;4940244;29;1490;-62
2023/09/28 01:02:52;;;;;;;;;;;;;;;17.46;47.23;100930.41;4941431;29;999;-64
2023/09/28 01:05:20;;;;;;;;;;;;;;;17.14;46.78;100926.00;4942538;29;1053;-63
2023/09/28 01:07:46;;;;;;;;;;;;;;;17.06;46.18;100921.88;4955265;29;2440;-63
2023/09/28 01:10:14;;;;;;;;;;;;;;;17.04;45.86;100926.81;4955624;29;1085;-63
2023/09/28 01:12:41;;;;;;;;;;;;;;;17.03;45.49;100927.91;4960058;29;1013;-61
2023/09/28 01:15:10;;;;;;;;;;;;;;;16.96;45.25;100919.13;4960358;29;1053;-61
2023/09/28 01:17:36;;;;;;;;;;;;;;;16.90;45.13;100917.44;4954986;29;907;-61
2023/09/28 01:20:05;;;;;;;;;;;;;;;16.82;45.07;100916.03;4947337;29;1167;-62
2023/09/28 01:22:31;;;;;;;;;;;;;;;16.89;44.55;100915.81;4959254;29;1289;-62
2023/09/28 01:24:56;;;;;;;;;;;;;;;16.86;44.42;100927.31;4959016;29;1289;-61
2023/09/28 01:27:22;;;;;;;;;;;;;;;16.81;44.37;100913.56;4949754;29;963;-61
2023/09/28 01:29:49;;;;;;;;;;;;;;;16.70;44.55;100931.94;4967879;28;1206;-61
2023/09/28 01:32:15;;;;;;;;;;;;;;;16.95;45.01;100913.91;4948999;29;1338;-61
2023/09/28 01:34:40;;;;;;;;;;;;;;;17.44;46.32;100918.84;4947103;29;998;-61
2023/09/28 01:37:08;;;;;;;;;;;;;;;17.01;46.59;100918.28;4959946;29;1915;-61
2023/09/28 01:39:34;;;;;;;;;;;;;;;16.98;45.74;100925.16;4941142;29;971;-64
2023/09/28 01:42:00;;;;;;;;;;;;;;;16.99;45.55;100926.00;4949988;29;848;-64
2023/09/28 01:44:25;;;;;;;;;;;;;;;17.52;46.72;100931.22;4957307;29;985;-63
2023/09/28 01:46:51;;;;;;;;;;;;;;;17.20;46.65;100924.09;4950004;29;994;-63
2023/09/28 01:49:16;;;;;;;;;;;;;;;17.09;45.96;100920.50;4959607;29;1108;-63
2023/09/28 01:51:42;;;;;;;;;;;;;;;17.08;45.40;100914.19;4951185;29;1096;-63
2023/09/28 01:54:09;;;;;;;;;;;;;;;16.96;45.26;100910.88;4956123;29;916;-63
2023/09/28 01:56:35;;;;;;;;;;;;;;;16.87;45.18;100917.97;4959524;29;1902;-63
2023/09/28 01:59:00;;;;;;;;;;;;;;;16.85;44.69;100920.16;4946878;29;1022;-64
2023/09/28 02:01:27;;;;;;;;;;;;;;;16.82;44.75;100927.03;4958320;29;1661;-62
2023/09/28 02:03:53;;;;;;;;;;;;;;;17.36;46.30;100928.50;4959395;29;1096;-61
2023/09/28 02:06:19;;;;;;;;;;;;;;;17.03;46.15;100922.41;4950909;29;877;-63
2023/09/28 02:08:45;;;;;;;;;;;;;;;16.96;45.83;100926.50;4954783;29;1915;-63
2023/09/28 02:11:11;;;;;;;;;;;;;;;16.87;45.51;100931.69;4948611;29;1125;-63
2023/09/28 02:13:37;;;;;;;;;;;;;;;16.94;44.88;100935.03;4951760;29;1117;-62
2023/09/28 02:16:03;;;;;;;;;;;;;;;17.55;46.23;100938.91;4923405;29;1967;-62
2023/09/28 02:18:28;;;;;;;;;;;;;;;17.18;46.37;100937.25;4952880;29;939;-63
2023/09/28 02:20:54;;;;;;;;;;;;;;;16.96;46.34;100935.59;4949638;29;1042;-63
2023/09/28 02:23:19;;;;;;;;;;;;;;;16.90;45.87;100922.94;4959737;29;1026;-62
2023/09/28 02:25:45;;;;;;;;;;;;;;;16.96;45.31;100927.34;4957363;29;1320;-62
2023/09/28 02:28:11;;;;;;;;;;;;;;;17.81;46.04;100925.13;4957669;29;1102;-63
2023/09/28 02:30:37;;;;;;;;;;;;;;;17.25;46.48;100924.91;4958545;29;844;-62
2023/09/28 02:33:02;;;;;;;;;;;;;;;17.16;45.75;100928.47;4957831;29;1073;-63
2023/09/28 02:35:29;;;;;;;;;;;;;;;16.92;45.92;100937.22;4950371;29;1970;-63
2023/09/28 02:37:55;;;;;;;;;;;;;;;16.99;45.16;100939.72;4950409;29;2273;-63
2023/09/28 02:40:21;;;;;;;;;;;;;;;16.84;45.33;100938.53;4957726;29;1451;-61
2023/09/28 02:42:49;;;;;;;;;;;;;;;16.77;44.98;100941.56;4953593;29;1018;-62
2023/09/28 02:45:15;;;;;;;;;;;;;;;17.63;46.17;100949.38;4948704;29;1099;-63
2023/09/28 02:47:47;;;;;;;;;;;;;;;17.22;46.34;100936.47;4958802;29;1085;-62
2023/09/28 02:50:13;;;;;;;;;;;;;;;17.05;45.94;100936.69;4957589;29;1120;-61
2023/09/28 02:52:43;;;;;;;;;;;;;;;17.06;45.44;100935.59;4957935;29;1112;-62
2023/09/28 02:55:09;;;;;;;;;;;;;;;16.87;45.27;100937.19;4939889;29;1045;-63
2023/09/28 02:57:34;;;;;;;;;;;;;;;16.90;45.31;100937.50;4952432;29;1991;-61
2023/09/28 03:00:00;;;;;;;;;;;;;;;16.84;45.16;100943.22;4949954;29;1186;-62
2023/09/28 03:02:26;;;;;;;;;;;;;;;16.83;44.91;100945.16;4957511;29;1208;-62
2023/09/28 03:04:51;;;;;;;;;;;;;;;16.76;45.06;100939.09;4958230;29;1068;-64
2023/09/28 03:07:17;;;;;;;;;;;;;;;16.77;44.57;100941.56;4953563;29;2243;-64
2023/09/28 03:09:42;;;;;;;;;;;;;;;16.86;44.16;100932.81;4949993;29;1081;-62
2023/09/28 03:12:08;;;;;;;;;;;;;;;17.58;46.34;100943.84;4942168;29;1120;-62
2023/09/28 03:14:34;;;;;;;;;;;;;;;17.17;46.45;100943.88;4939020;29;1089;-62
2023/09/28 03:16:59;;;;;;;;;;;;;;;17.01;45.88;100946.59;4952898;28;1922;-60
2023/09/28 03:19:25;;;;;;;;;;;;;;;16.91;45.75;100946.56;4956570;29;1329;-57
2023/09/28 03:21:51;;;;;;;;;;;;;;;16.88;45.34;100952.56;4956106;29;1126;-63
2023/09/28 03:24:16;;;;;;;;;;;;;;;16.87;45.05;100957.25;4958680;28;1010;-62
2023/09/28 03:26:42;;;;;;;;;;;;;;;17.26;45.50;100966.94;4953093;29;1105;-63
2023/09/28 03:29:08;;;;;;;;;;;;;;;17.32;46.31;100962.28;4945765;29;1492;-61
2023/09/28 03:31:34;;;;;;;;;;;;;;;16.97;46.12;100961.13;4952099;29;1180;-60
2023/09/28 03:33:59;;;;;;;;;;;;;;;16.97;45.46;100964.72;4957769;29;1216;-61
2023/09/28 03:36:25;;;;;;;;;;;;;;;17.30;45.97;100964.50;4957494;29;1987;-61
2023/09/28 03:38:50;;;;;;;;;;;;;;;17.53;46.39;100960.34;4956203;29;2394;-61
2023/09/28 03:41:17;;;;;;;;;;;;;;;17.17;46.55;100963.09;4956772;29;1237;-58
2023/09/28 03:43:46;;;;;;;;;;;;;;;17.05;45.99;100961.41;4957694;28;1473;-58
2023/09/28 03:46:12;;;;;;;;;;;;;;;16.94;45.86;100962.50;4957737;29;1197;-59
2023/09/28 03:48:37;;;;;;;;;;;;;;;16.96;45.20;100965.81;4948119;29;1057;-57
2023/09/28 03:51:03;;;;;;;;;;;;;;;16.95;45.00;100968.84;4954533;29;1081;-57
2023/09/28 03:53:30;;;;;;;;;;;;;;;17.90;46.43;100967.47;4957373;29;1013;-57
2023/09/28 03:55:56;;;;;;;;;;;;;;;17.34;47.00;100971.91;4957224;29;1989;-55
2023/09/28 03:58:21;;;;;;;;;;;;;;;17.15;46.53;100976.28;4957763;29;1030;-58
2023/09/28 04:00:47;;;;;;;;;;;;;;;17.08;45.88;100973.78;4944516;29;1044;-57
2023/09/28 04:03:13;;;;;;;;;;;;;;;16.96;45.71;100979.53;4956724;29;1130;-53
2023/09/28 04:05:38;;;;;;;;;;;;;;;16.96;45.07;100975.94;4942259;29;1053;-58
2023/09/28 04:08:05;;;;;;;;;;;;;;;16.90;44.74;100980.59;4955221;28;1999;-56
2023/09/28 04:10:33;;;;;;;;;;;;;;;16.89;44.56;100974.31;4957399;29;1505;-55
2023/09/28 04:12:58;;;;;;;;;;;;;;;16.80;44.59;100977.81;4953764;28;1379;-56
2023/09/28 04:15:24;;;;;;;;;;;;;;;17.57;45.94;100977.94;4957393;29;1906;-55
2023/09/28 04:17:50;;;;;;;;;;;;;;;17.32;46.97;100976.84;4954919;29;1378;-55
2023/09/28 04:20:16;;;;;;;;;;;;;;;17.07;46.37;100981.22;4954398;28;1504;-55
2023/09/28 04:22:41;;;;;;;;;;;;;;;17.06;45.78;100978.75;4957593;29;1070;-57
2023/09/28 04:25:07;;;;;;;;;;;;;;;17.00;45.52;100975.16;4957804;28;1370;-57
2023/09/28 04:27:34;;;;;;;;;;;;;;;16.99;45.04;100973.50;4957551;28;1070;-58
2023/09/28 04:29:59;;;;;;;;;;;;;;;16.76;45.18;100972.88;4959684;28;1310;-55
2023/09/28 04:32:27;;;;;;;;;;;;;;;16.87;44.90;100979.22;4950647;29;1041;-57
2023/09/28 04:34:53;;;;;;;;;;;;;;;16.83;44.74;100983.59;4958629;29;1256;-55
2023/09/28 04:37:19;;;;;;;;;;;;;;;16.74;44.77;100988.78;4960695;28;2565;-55
2023/09/28 04:39:44;;;;;;;;;;;;;;;18.00;43.61;100991.44;4961503;29;1137;-55
2023/09/28 04:42:10;;;;;;;;;;;;;;;17.62;44.41;100991.72;4960370;29;1236;-58
2023/09/28 04:44:35;;;;;;;;;;;;;;;17.51;45.13;100988.13;4961159;29;1053;-55
2023/09/28 04:47:02;;;;;;;;;;;;;;;17.36;45.83;100986.22;4960735;29;1006;-56
2023/09/28 04:49:28;;;;;;;;;;;;;;;17.31;45.98;100982.63;4951955;29;1065;-56
2023/09/28 04:51:53;;;;;;;;;;;;;;;17.22;46.38;100996.06;4960361;29;1043;-54
2023/09/28 04:54:20;;;;;;;;;;;;;;;17.15;46.77;100998.25;4954904;29;1144;-56
2023/09/28 04:56:45;;;;;;;;;;;;;;;17.06;47.37;100998.78;4959820;29;2012;-57
2023/09/28 04:59:11;;;;;;;;;;;;;;;16.97;47.58;100994.94;4947443;29;1013;-56
2023/09/28 05:01:36;;;;;;;;;;;;;;;17.00;47.75;100993.53;4960414;29;1191;-56
2023/09/28 05:04:02;;;;;;;;;;;;;;;16.95;48.12;101002.59;4947322;29;1085;-64
2023/09/28 05:06:28;;;;;;;;;;;;;;;16.89;48.09;100998.22;4953724;28;1184;-64
2023/09/28 05:08:53;;;;;;;;;;;;;;;16.89;48.53;100998.22;4949009;29;2122;-65
2023/09/28 05:11:19;;;;;;;;;;;;;;;16.82;48.67;101003.91;4949339;29;1081;-64
2023/09/28 05:13:44;;;;;;;;;;;;;;;16.73;49.12;101005.53;4957402;29;1017;-66
2023/09/28 05:16:10;;;;;;;;;;;;;;;16.74;49.32;101012.66;4960443;29;1911;-62
2023/09/28 05:18:35;;;;;;;;;;;;;;;16.70;49.57;101009.63;4953486;29;1033;-63
2023/09/28 05:21:01;;;;;;;;;;;;;;;16.68;49.65;101005.53;4950004;29;1047;-66
2023/09/28 05:23:26;;;;;;;;;;;;;;;16.67;49.58;101003.88;4958105;29;1002;-63
2023/09/28 05:25:53;;;;;;;;;;;;;;;16.58;49.88;101011.78;4959753;29;1094;-65
2023/09/28 05:28:18;;;;;;;;;;;;;;;16.56;50.27;101011.22;4954612;29;1356;-65
2023/09/28 05:30:44;;;;;;;;;;;;;;;16.56;50.09;101008.47;4959175;29;938;-60
2023/09/28 05:33:10;;;;;;;;;;;;;;;16.54;50.32;101010.69;4946302;29;1181;-64
2023/09/28 05:35:35;;;;;;;;;;;;;;;16.50;50.40;101007.63;4959640;29;1982;-66
2023/09/28 05:38:02;;;;;;;;;;;;;;;16.47;50.83;101010.09;4948566;29;1901;-53
2023/09/28 05:40:27;;;;;;;;;;;;;;;16.48;50.51;101009.84;4959037;28;1063;-54
2023/09/28 05:42:53;;;;;;;;;;;;;;;16.39;51.05;101009.50;4953354;29;1429;-53
2023/09/28 05:45:18;;;;;;;;;;;;;;;17.28;49.32;101006.00;4961449;28;1291;-56
2023/09/28 05:47:44;;;;;;;;;;;;;;;17.24;49.62;101004.88;4958591;28;1271;-58
2023/09/28 05:50:12;;;;;;;;;;;;;;;16.98;50.21;101006.75;4956633;29;1402;-58
2023/09/28 05:52:38;;;;;;;;;;;;;;;16.82;50.64;101005.84;4959199;29;1074;-57
2023/09/28 05:55:03;;;;;;;;;;;;;;;16.73;51.11;101008.28;4954313;28;1291;-54
2023/09/28 05:57:29;;;;;;;;;;;;;;;16.68;51.14;101000.84;4959146;29;1918;-56
2023/09/28 05:59:54;;;;;;;;;;;;;;;16.59;51.63;100999.69;4954174;28;1252;-55
2023/09/28 06:02:20;;;;;;;;;;;;;;;16.56;51.57;101011.22;4958987;29;1212;-55
2023/09/28 06:04:45;;;;;;;;;;;;;;;16.50;51.76;101004.06;4954687;28;1334;-55
2023/09/28 06:07:11;;;;;;;;;;;;;;;16.50;51.92;100995.84;4958591;28;1884;-55
2023/09/28 06:09:40;;;;;;;;;;;;;;;16.48;51.89;101000.75;4967763;28;1176;-55
2023/09/28 06:12:06;;;;;;;;;;;;;;;17.35;50.57;100994.69;4956375;28;1036;-57
2023/09/28 06:14:31;;;;;;;;;;;;;;;17.27;50.74;101009.81;4940316;29;1034;-57
2023/09/28 06:16:57;;;;;;;;;;;;;;;16.97;51.85;101005.94;4939835;29;1910;-57
2023/09/28 06:19:22;;;;;;;;;;;;;;;16.86;52.32;101009.72;4949152;29;903;-56
2023/09/28 06:21:48;;;;;;;;;;;;;;;16.75;52.61;101001.41;4959317;29;1093;-55
2023/09/28 06:24:13;;;;;;;;;;;;;;;16.70;52.55;101006.06;4957752;29;1026;-56
2023/09/28 06:26:39;;;;;;;;;;;;;;;16.62;53.04;101012.91;4955694;29;1033;-57
2023/09/28 06:29:04;;;;;;;;;;;;;;;16.67;52.69;101020.34;4948961;29;1014;-54
2023/09/28 06:31:30;;;;;;;;;;;;;;;16.60;52.80;101021.41;4958661;28;1172;-56
2023/09/28 06:33:56;;;;;;;;;;;;;;;16.55;53.18;101026.88;4983714;28;1146;-58
2023/09/28 06:36:25;;;;;;;;;;;;;;;16.57;53.24;101023.88;4958354;29;1902;-56
2023/09/28 06:38:51;;;;;;;;;;;;;;;17.72;51.46;101032.13;4958529;29;2252;-57
2023/09/28 06:41:17;;;;;;;;;;;;;;;17.12;52.95;101029.03;4958041;29;1017;-55
2023/09/28 06:43:42;;;;;;;;;;;;;;;16.94;53.11;101028.41;4957371;29;917;-55
2023/09/28 06:46:08;;;;;;;;;;;;;;;16.84;53.22;101029.19;4958703;29;1204;-54
2023/09/28 06:48:34;;;;;;;;;;;;;;;16.77;53.12;101032.19;4957711;28;1147;-56
2023/09/28 06:50:59;;;;;;;;;;;;;;;16.67;53.62;101040.38;4966307;28;1100;-52
2023/09/28 06:53:25;;;;;;;;;;;;;;;16.65;53.44;101026.09;4945204;28;1181;-56
2023/09/28 06:55:51;;;;;;;;;;;;;;;16.71;52.96;101036.00;4957411;29;1906;-56
2023/09/28 06:58:17;;;;;;;;;;;;;;;16.60;53.16;101026.88;4958216;29;1116;-57
2023/09/28 07:00:45;;;;;;;;;;;;;;;16.60;53.22;101039.78;4958411;29;1126;-54
2023/09/28 07:03:12;;;;;;;;;;;;;;;16.58;53.29;101036.50;4957895;28;1117;-55
2023/09/28 07:05:38;;;;;;;;;;;;;;;16.54;53.21;101035.38;4957647;29;1077;-53
2023/09/28 07:08:05;;;;;;;;;;;;;;;16.52;53.14;101034.81;4957554;28;1979;-55
2023/09/28 07:10:33;;;;;;;;;;;;;;;16.47;53.50;101029.31;4959162;28;1073;-55
2023/09/28 07:13:03;;;;;;;;;;;;;;;16.50;53.12;101035.09;4957766;29;1394;-55
2023/09/28 07:15:29;;;;;;;;;;;;;;;17.18;53.22;101038.94;4957558;29;1903;-56
2023/09/28 07:17:55;;;;;;;;;;;;;;;17.40;53.02;101039.53;4958065;29;1342;-55
2023/09/28 07:20:21;;;;;;;;;;;;;;;17.00;54.02;101043.84;4948396;29;1295;-54
2023/09/28 07:22:46;;;;;;;;;;;;;;;16.86;53.91;101050.91;4957926;29;1255;-55
2023/09/28 07:25:12;;;;;;;;;;;;;;;16.74;53.91;101042.88;4956824;28;1110;-54
2023/09/28 07:27:37;;;;;;;;;;;;;;;16.74;54.08;101051.94;4958272;29;1092;-55
2023/09/28 07:30:05;;;;;;;;;;;;;;;16.74;53.51;101045.63;4957604;29;1239;-55
2023/09/28 07:32:30;;;;;;;;;;;;;;;16.65;53.94;101041.72;4953951;29;923;-51
2023/09/28 07:34:56;;;;;;;;;;;;;;;16.65;53.90;101042.56;4957988;29;1034;-55
2023/09/28 07:37:24;;;;;;;;;;;;;;;16.57;53.68;101041.16;4955530;29;2341;-53
2023/09/28 07:39:50;;;;;;;;;;;;;;;16.52;53.76;101043.03;4955436;29;1059;-52
2023/09/28 07:42:15;;;;;;;;;;;;;;;16.54;53.79;101040.88;4957675;29;1005;-52
2023/09/28 07:44:41;;;;;;;;;;;;;;;16.55;53.82;101043.34;4948007;29;1117;-53
2023/09/28 07:47:08;;;;;;;;;;;;;;;16.48;53.83;101045.50;4957900;29;1005;-56
2023/09/28 07:49:33;;;;;;;;;;;;;;;17.60;53.27;101040.66;4957816;29;1188;-56
2023/09/28 07:51:59;;;;;;;;;;;;;;;17.16;54.29;101044.69;4961064;28;1145;-57
2023/09/28 07:54:24;;;;;;;;;;;;;;;16.97;54.65;101052.63;4957672;29;1056;-56
2023/09/28 07:56:50;;;;;;;;;;;;;;;16.86;54.49;101048.16;4954816;28;1902;-56
2023/09/28 07:59:15;;;;;;;;;;;;;;;16.84;54.55;101053.09;4946985;28;1133;-57
2023/09/28 08:01:42;;;;;;;;;;;;;;;16.80;54.49;101049.22;4951586;29;1077;-57
2023/09/28 08:04:08;;;;;;;;;;;;;;;16.72;54.59;101047.81;4940609;29;1011;-57
2023/09/28 08:06:34;;;;;;;;;;;;;;;16.70;54.44;101052.75;4959375;28;1118;-59
2023/09/28 08:09:00;;;;;;;;;;;;;;;16.66;54.45;101057.97;4959834;29;1805;-59
2023/09/28 08:11:26;;;;;;;;;;;;;;;16.62;54.62;101051.34;4951347;29;986;-59
2023/09/28 08:13:51;;;;;;;;;;;;;;;16.61;54.24;101052.44;4961270;29;1078;-59
2023/09/28 08:16:17;;;;;;;;;;;;;;;16.61;54.21;101063.41;4969398;28;1910;-59
2023/09/28 08:18:42;;;;;;;;;;;;;;;16.58;54.39;101050.22;4948410;28;1117;-58
2023/09/28 08:21:08;;;;;;;;;;;;;;;16.55;54.54;101048.00;4957547;29;909;-59
2023/09/28 08:23:34;;;;;;;;;;;;;;;16.52;54.45;101052.13;4953435;28;1106;-56
2023/09/28 08:25:59;;;;;;;;;;;;;;;16.53;54.27;101055.69;4967096;28;1064;-59
2023/09/28 08:28:25;;;;;;;;;;;;;;;16.53;54.23;101050.19;4961061;28;1121;-58
2023/09/28 08:30:53;;;;;;;;;;;;;;;16.58;54.34;101053.78;4973179;28;1186;-58
2023/09/28 08:33:19;;;;;;;;;;;;;;;17.61;54.26;101053.28;4950027;28;1123;-58
2023/09/28 08:35:48;;;;;;;;;;;;;;;17.14;55.12;101057.91;4973871;28;1906;-58
2023/09/28 08:38:15;;;;;;;;;;;;;;;16.96;55.31;101059.22;4962017;28;1941;-56
2023/09/28 08:40:41;;;;;;;;;;;;;;;16.89;55.18;101053.16;4970313;28;1136;-59
2023/09/28 08:43:06;;;;;;;;;;;;;;;16.81;54.98;101048.13;4961075;29;994;-59
2023/09/28 08:45:32;;;;;;;;;;;;;;;16.81;54.57;101053.63;4957000;29;855;-58
2023/09/28 08:47:57;;;;;;;;;;;;;;;16.75;54.84;101052.78;4960972;29;1113;-58
2023/09/28 08:50:23;;;;;;;;;;;;;;;16.77;54.65;101040.44;4960700;29;1044;-58
2023/09/28 08:52:50;;;;;;;;;;;;;;;16.74;54.45;101035.47;4953124;29;1105;-58
2023/09/28 08:55:16;;;;;;;;;;;;;;;16.67;54.78;101045.88;4955051;29;1127;-58
2023/09/28 08:57:42;;;;;;;;;;;;;;;16.65;54.39;101031.59;4952145;29;1984;-58
2023/09/28 09:00:13;;;;;;;;;;;;;;;16.60;54.65;101028.81;4970429;28;1380;-59
2023/09/28 09:02:42;;;;;;;;;;;;;;;16.63;54.29;101025.53;4960348;29;1076;-58
2023/09/28 09:05:07;;;;;;;;;;;;;;;16.58;54.65;101020.03;4958094;29;1153;-59
2023/09/28 09:07:33;;;;;;;;;;;;;;;16.67;54.25;101021.16;4943813;29;1908;-58
2023/09/28 09:09:59;;;;;;;;;;;;;;;16.56;54.48;101012.06;4960025;29;1019;-58
2023/09/28 09:12:24;;;;;;;;;;;;;;;16.58;54.47;101009.06;4959130;29;1057;-58
2023/09/28 09:14:50;;;;;;;;;;;;;;;16.53;54.43;101011.75;4959555;28;1110;-58
2023/09/28 09:17:15;;;;;;;;;;;;;;;16.62;54.64;101009.31;4959964;29;1902;-58
2023/09/28 09:19:41;;;;;;;;;;;;;;;17.51;54.55;101010.13;4959123;29;1173;-58
2023/09/28 09:22:08;;;;;;;;;;;;;;;17.11;55.25;101017.22;4941200;29;1006;-58
2023/09/28 09:24:33;;;;;;;;;;;;;;;16.89;55.32;101009.19;4955412;29;1026;-58
2023/09/28 09:26:59;;;;;;;;;;;;;;;16.91;55.07;101020.72;4947236;28;1094;-60
2023/09/28 09:29:24;;;;;;;;;;;;;;;16.78;55.31;101019.28;4953835;29;1169;-59
2023/09/28 09:31:50;;;;;;;;;;;;;;;16.83;54.75;101021.22;4946939;29;1038;-59
2023/09/28 09:34:17;;;;;;;;;;;;;;;16.75;54.91;101017.91;4960086;29;1029;-59
2023/09/28 09:36:48;;;;;;;;;;;;;;;16.72;54.90;101020.38;4954297;29;1918;-58
2023/09/28 09:39:21;;;;;;;;;;;;;;;16.72;54.52;101020.38;4951831;29;2667;-62
2023/09/28 09:41:49;;;;;;;;;;;;;;;16.69;54.79;101018.13;4948668;29;1154;-60
2023/09/28 09:44:18;;;;;;;;;;;;;;;16.66;54.76;101011.28;4959472;29;1076;-60
2023/09/28 09:46:44;;;;;;;;;;;;;;;16.71;54.41;101007.72;4951181;29;1109;-59
2023/09/28 09:49:10;;;;;;;;;;;;;;;16.63;54.46;101008.25;4954245;29;1120;-60
2023/09/28 09:51:36;;;;;;;;;;;;;;;16.60;54.45;101017.84;4958623;29;1130;-56
2023/09/28 09:54:01;;;;;;;;;;;;;;;16.58;54.24;101015.34;4950680;29;1059;-56
2023/09/28 09:56:27;;;;;;;;;;;;;;;16.55;54.50;101010.41;4950485;29;1898;-58
2023/09/28 09:58:53;;;;;;;;;;;;;;;17.47;54.91;101002.69;4952043;29;1042;-58
2023/09/28 10:01:19;;;;;;;;;;;;;;;17.47;54.90;101003.50;4969012;28;1098;-57
2023/09/28 10:03:50;;;;;;;;;;;;;;;17.15;55.29;101006.50;4958494;29;1061;-58
2023/09/28 10:06:16;;;;;;;;;;;;;;;17.00;55.40;101008.13;4959370;29;1029;-57
2023/09/28 10:08:45;;;;;;;;;;;;;;;16.95;55.03;101007.28;4959217;29;1848;-59
2023/09/28 10:11:14;;;;;;;;;;;;;;;16.94;55.07;101003.69;4959671;29;1098;-57
2023/09/28 10:13:39;;;;;;;;;;;;;;;16.87;54.79;100997.59;4945314;29;1050;-58
2023/09/28 10:16:05;;;;;;;;;;;;;;;16.81;54.91;100998.69;4947902;29;1910;-58
2023/09/28 10:18:32;;;;;;;;;;;;;;;16.76;54.75;100994.84;4944083;29;1038;-58
2023/09/28 10:20:59;;;;;;;;;;;;;;;16.73;54.59;101000.03;4952188;29;1128;-58
2023/09/28 10:23:25;;;;;;;;;;;;;;;16.66;54.69;100994.81;4956916;29;1141;-56
2023/09/28 10:26:18;;;;;;;;;;;;;;;16.68;54.55;100998.09;4958150;28;1177;-58
2023/09/28 10:29:13;;;;;;;;;;;;;;;16.69;54.35;100998.91;4957474;29;1098;-57
2023/09/28 10:31:41;;;;;;;;;;;;;;;16.60;54.54;100993.13;4949825;29;1315;-56
2023/09/28 10:34:07;;;;;;;;;;;;;;;16.58;54.34;100992.59;4959276;28;1136;-59
2023/09/28 10:36:34;;;;;;;;;;;;;;;16.58;54.30;100992.59;4960896;28;1906;-58
2023/09/28 10:39:14;;;;;;;;;;;;;;;16.50;54.28;100988.41;4957338;28;1908;-58
2023/09/28 10:41:49;;;;;;;;;;;;;;;16.53;54.41;100981.56;4954040;28;1127;-60
2023/09/28 10:44:16;;;;;;;;;;;;;;;16.51;54.24;100989.22;4966597;28;1278;-58
2023/09/28 10:46:42;;;;;;;;;;;;;;;17.58;54.76;100990.59;4950246;29;1109;-59
2023/09/28 10:49:07;;;;;;;;;;;;;;;17.15;55.29;100996.31;4958188;29;1362;-58
2023/09/28 10:51:33;;;;;;;;;;;;;;;16.95;55.36;100983.38;4958493;29;1058;-60
2023/09/28 10:53:59;;;;;;;;;;;;;;;16.83;55.20;100982.75;4958605;29;1006;-59
2023/09/28 10:56:24;;;;;;;;;;;;;;;16.76;55.17;100983.84;4969161;28;1967;-61
2023/09/28 10:58:50;;;;;;;;;;;;;;;16.72;54.98;100982.75;4951086;28;1001;-60
2023/09/28 11:01:16;;;;;;;;;;;;;;;16.66;55.04;100983.84;4956700;29;1058;-59
2023/09/28 11:03:42;;;;;;;;;;;;;;;16.68;54.65;100984.38;4958503;29;1048;-60
2023/09/28 11:06:09;;;;;;;;;;;;;;;16.63;54.74;100969.81;4957976;28;1173;-60
2023/09/28 11:08:36;;;;;;;;;;;;;;;16.60;54.53;100979.41;4963814;28;1859;-60
2023/09/28 11:11:01;;;;;;;;;;;;;;;16.61;54.49;100978.31;4961871;28;1044;-60
2023/09/28 11:13:27;;;;;;;;;;;;;;;16.62;54.19;100977.22;4957885;28;1150;-58
2023/09/28 11:15:53;;;;;;;;;;;;;;;17.34;55.24;100969.16;4956996;29;1906;-59
2023/09/28 11:18:19;;;;;;;;;;;;;;;17.38;55.33;100967.50;4949230;29;1017;-59
2023/09/28 11:20:45;;;;;;;;;;;;;;;17.14;55.47;100955.38;4953268;29;1415;-58
2023/09/28 11:23:11;;;;;;;;;;;;;;;17.01;55.21;100965.84;4956427;29;1291;-59
2023/09/28 11:25:38;;;;;;;;;;;;;;;16.89;55.57;100943.28;4957484;29;1094;-56
2023/09/28 11:28:04;;;;;;;;;;;;;;;16.91;55.37;100952.91;4957639;28;1117;-58
2023/09/28 11:30:29;;;;;;;;;;;;;;;16.81;55.55;100952.00;4957389;29;1041;-59
2023/09/28 11:32:55;;;;;;;;;;;;;;;16.77;55.29;100947.06;4955183;29;1118;-58
2023/09/28 11:35:24;;;;;;;;;;;;;;;16.81;54.92;100950.06;4958377;29;1090;-58
2023/09/28 11:37:51;;;;;;;;;;;;;;;16.73;54.76;100945.13;4963615;28;1898;-59
2023/09/28 11:40:16;;;;;;;;;;;;;;;16.68;54.98;100951.41;4956775;29;1062;-58
2023/09/28 11:42:45;;;;;;;;;;;;;;;16.68;54.72;100948.69;4957252;29;1132;-58
2023/09/28 11:45:12;;;;;;;;;;;;;;;16.68;54.72;100943.19;4953554;29;1181;-61
2023/09/28 11:47:37;;;;;;;;;;;;;;;16.66;54.48;100945.38;4945284;29;1055;-58
2023/09/28 11:50:04;;;;;;;;;;;;;;;16.60;54.62;100938.22;4957481;29;1017;-58
2023/09/28 11:52:30;;;;;;;;;;;;;;;16.57;54.87;100930.53;4949523;28;1319;-58
2023/09/28 11:54:55;;;;;;;;;;;;;;;16.66;54.78;100944.53;4956522;29;1114;-59
2023/09/28 11:57:21;;;;;;;;;;;;;;;16.62;55.08;100933.28;4953066;29;1902;-58
2023/09/28 11:59:47;;;;;;;;;;;;;;;16.57;54.85;100936.03;4956566;29;1066;-58
2023/09/28 12:02:12;;;;;;;;;;;;;;;16.56;54.90;100931.63;4957670;29;1149;-59
2023/09/28 12:04:38;;;;;;;;;;;;;;;16.57;54.92;100934.09;4956506;28;1135;-59
2023/09/28 12:07:03;;;;;;;;;;;;;;;16.57;54.76;100945.06;4956619;29;1117;-60
2023/09/28 12:09:31;;;;;;;;;;;;;;;16.51;54.89;100937.91;4952545;28;1812;-61
2023/09/28 12:11:56;;;;;;;;;;;;;;;16.54;54.76;100933.81;4950327;28;1104;-58
2023/09/28 12:14:22;;;;;;;;;;;;;;;16.54;54.61;100942.06;4956594;29;1006;-58
2023/09/28 12:16:47;;;;;;;;;;;;;;;17.29;55.39;100947.16;4957142;28;1926;-58
2023/09/28 12:19:13;;;;;;;;;;;;;;;17.31;55.63;100942.22;4957552;28;1176;-59
2023/09/28 12:21:39;;;;;;;;;;;;;;;16.98;56.06;100929.81;4951225;28;1279;-58
2023/09/28 12:24:06;;;;;;;;;;;;;;;16.91;56.00;100947.41;4957032;29;1041;-59
2023/09/28 12:26:32;;;;;;;;;;;;;;;16.85;55.58;100953.94;4957342;28;1302;-59
2023/09/28 12:28:57;;;;;;;;;;;;;;;16.85;55.40;100950.38;4957741;29;1263;-58
2023/09/28 12:31:23;;;;;;;;;;;;;;;16.80;55.33;100945.69;4957316;28;1359;-58
2023/09/28 12:33:49;;;;;;;;;;;;;;;16.75;55.17;100931.94;4956923;29;1318;-56
2023/09/28 12:36:15;;;;;;;;;;;;;;;16.73;55.03;100937.72;4957039;29;1907;-58
2023/09/28 12:38:41;;;;;;;;;;;;;;;16.70;54.85;100946.47;4957456;28;2070;-57
2023/09/28 12:41:09;;;;;;;;;;;;;;;16.68;54.94;100934.94;4957603;29;1102;-58
2023/09/28 12:43:35;;;;;;;;;;;;;;;16.62;54.94;100949.78;4955151;28;1307;-57